sensor_id;sensor_type;location;lat;lon;timestamp;P1;durP1;ratioP1;P2;durP2;ratioP2
68178;SDS011;69812;42.632;23.440;2024-03-08T00:02:10;16.85;;;7.43;;
68178;SDS011;69812;42.632;23.440;2024-03-08T00:04:35;17.63;;;7.95;;
68178;SDS011;69812;42.632;23.440;2024-03-08T00:07:01;19.92;;;8.25;;
68178;SDS011;69812;42.632;23.440;2024-03-08T00:09:28;19.67;;;10.13;;
68178;SDS011;69812;42.632;23.440;2024-03-08T00:11:56;22.77;;;10.68;;
68178;SDS011;69812;42.632;23.440;2024-03-08T00:14:24;21.02;;;9.18;;
68178;SDS011;69812;42.632;23.440;2024-03-08T00:16:50;29.23;;;12.60;;
68178;SDS011;69812;42.632;23.440;2024-03-08T00:19:17;22.33;;;10.07;;
68178;SDS011;69812;42.632;23.440;2024-03-08T00:21:43;20.92;;;8.85;;
68178;SDS011;69812;42.632;23.440;2024-03-08T00:24:08;20.13;;;10.25;;
68178;SDS011;69812;42.632;23.440;2024-03-08T00:26:34;17.30;;;7.80;;
68178;SDS011;69812;42.632;23.440;2024-03-08T00:29:02;17.67;;;7.75;;
68178;SDS011;69812;42.632;23.440;2024-03-08T00:31:28;16.33;;;5.88;;
68178;SDS011;69812;42.632;23.440;2024-03-08T00:33:55;19.23;;;7.00;;
68178;SDS011;69812;42.632;23.440;2024-03-08T00:36:26;15.90;;;7.10;;
68178;SDS011;69812;42.632;23.440;2024-03-08T00:38:51;16.38;;;8.25;;
68178;SDS011;69812;42.632;23.440;2024-03-08T00:41:19;16.73;;;7.82;;
68178;SDS011;69812;42.632;23.440;2024-03-08T00:43:44;15.73;;;6.43;;
68178;SDS011;69812;42.632;23.440;2024-03-08T00:46:12;13.95;;;5.68;;
68178;SDS011;69812;42.632;23.440;2024-03-08T00:48:43;10.68;;;4.90;;
68178;SDS011;69812;42.632;23.440;2024-03-08T00:51:08;13.77;;;5.28;;
68178;SDS011;69812;42.632;23.440;2024-03-08T00:53:34;10.18;;;4.65;;
68178;SDS011;69812;42.632;23.440;2024-03-08T00:56:01;12.75;;;4.55;;
68178;SDS011;69812;42.632;23.440;2024-03-08T00:58:27;10.63;;;4.72;;
68178;SDS011;69812;42.632;23.440;2024-03-08T01:00:53;12.32;;;4.93;;
68178;SDS011;69812;42.632;23.440;2024-03-08T01:03:19;12.20;;;5.05;;
68178;SDS011;69812;42.632;23.440;2024-03-08T01:05:44;10.73;;;4.50;;
68178;SDS011;69812;42.632;23.440;2024-03-08T01:08:21;12.75;;;4.90;;
68178;SDS011;69812;42.632;23.440;2024-03-08T01:10:49;11.15;;;4.45;;
68178;SDS011;69812;42.632;23.440;2024-03-08T01:13:17;14.80;;;5.47;;
68178;SDS011;69812;42.632;23.440;2024-03-08T01:15:46;12.40;;;4.65;;
68178;SDS011;69812;42.632;23.440;2024-03-08T01:18:16;10.68;;;4.40;;
68178;SDS011;69812;42.632;23.440;2024-03-08T01:20:41;8.57;;;4.25;;
68178;SDS011;69812;42.632;23.440;2024-03-08T01:23:09;10.10;;;4.15;;
68178;SDS011;69812;42.632;23.440;2024-03-08T01:25:41;10.73;;;4.05;;
68178;SDS011;69812;42.632;23.440;2024-03-08T01:28:11;10.50;;;4.50;;
68178;SDS011;69812;42.632;23.440;2024-03-08T01:30:46;10.05;;;3.83;;
68178;SDS011;69812;42.632;23.440;2024-03-08T01:33:11;9.65;;;4.18;;
68178;SDS011;69812;42.632;23.440;2024-03-08T01:35:39;8.75;;;3.90;;
68178;SDS011;69812;42.632;23.440;2024-03-08T01:38:06;10.32;;;4.22;;
68178;SDS011;69812;42.632;23.440;2024-03-08T01:40:34;10.50;;;3.47;;
68178;SDS011;69812;42.632;23.440;2024-03-08T01:43:15;6.30;;;3.05;;
68178;SDS011;69812;42.632;23.440;2024-03-08T01:45:44;8.60;;;2.35;;
68178;SDS011;69812;42.632;23.440;2024-03-08T01:48:11;5.47;;;2.47;;
68178;SDS011;69812;42.632;23.440;2024-03-08T01:50:37;5.38;;;1.88;;
68178;SDS011;69812;42.632;23.440;2024-03-08T01:53:04;4.57;;;2.45;;
68178;SDS011;69812;42.632;23.440;2024-03-08T01:55:30;6.00;;;2.35;;
68178;SDS011;69812;42.632;23.440;2024-03-08T01:57:56;4.20;;;2.33;;
68178;SDS011;69812;42.632;23.440;2024-03-08T02:00:29;5.20;;;2.30;;
68178;SDS011;69812;42.632;23.440;2024-03-08T02:02:58;6.57;;;2.60;;
68178;SDS011;69812;42.632;23.440;2024-03-08T02:05:26;7.30;;;2.65;;
68178;SDS011;69812;42.632;23.440;2024-03-08T02:07:54;5.72;;;2.72;;
68178;SDS011;69812;42.632;23.440;2024-03-08T02:10:20;5.43;;;2.58;;
68178;SDS011;69812;42.632;23.440;2024-03-08T02:12:49;5.40;;;2.60;;
68178;SDS011;69812;42.632;23.440;2024-03-08T02:15:18;5.68;;;2.63;;
68178;SDS011;69812;42.632;23.440;2024-03-08T02:17:46;5.90;;;2.58;;
68178;SDS011;69812;42.632;23.440;2024-03-08T02:20:12;7.60;;;3.47;;
68178;SDS011;69812;42.632;23.440;2024-03-08T02:22:38;5.97;;;3.00;;
68178;SDS011;69812;42.632;23.440;2024-03-08T02:25:04;6.13;;;2.53;;
68178;SDS011;69812;42.632;23.440;2024-03-08T02:27:32;4.18;;;2.22;;
68178;SDS011;69812;42.632;23.440;2024-03-08T02:29:58;5.45;;;2.55;;
68178;SDS011;69812;42.632;23.440;2024-03-08T02:32:27;6.32;;;2.97;;
68178;SDS011;69812;42.632;23.440;2024-03-08T02:34:56;5.65;;;2.40;;
68178;SDS011;69812;42.632;23.440;2024-03-08T02:37:23;6.60;;;3.05;;
68178;SDS011;69812;42.632;23.440;2024-03-08T02:39:49;5.47;;;2.83;;
68178;SDS011;69812;42.632;23.440;2024-03-08T02:42:19;6.00;;;2.47;;
68178;SDS011;69812;42.632;23.440;2024-03-08T02:44:44;5.00;;;2.60;;
68178;SDS011;69812;42.632;23.440;2024-03-08T02:47:09;7.38;;;2.60;;
68178;SDS011;69812;42.632;23.440;2024-03-08T02:49:35;4.90;;;2.58;;
68178;SDS011;69812;42.632;23.440;2024-03-08T02:52:03;3.47;;;1.98;;
68178;SDS011;69812;42.632;23.440;2024-03-08T02:54:31;4.50;;;2.47;;
68178;SDS011;69812;42.632;23.440;2024-03-08T02:56:56;9.73;;;3.75;;
68178;SDS011;69812;42.632;23.440;2024-03-08T02:59:22;34.22;;;10.98;;
68178;SDS011;69812;42.632;23.440;2024-03-08T03:01:52;20.50;;;7.43;;
68178;SDS011;69812;42.632;23.440;2024-03-08T03:04:17;16.95;;;6.03;;
68178;SDS011;69812;42.632;23.440;2024-03-08T03:06:43;6.32;;;2.60;;
68178;SDS011;69812;42.632;23.440;2024-03-08T03:09:11;7.28;;;2.45;;
68178;SDS011;69812;42.632;23.440;2024-03-08T03:11:36;11.10;;;4.90;;
68178;SDS011;69812;42.632;23.440;2024-03-08T03:14:02;9.27;;;3.75;;
68178;SDS011;69812;42.632;23.440;2024-03-08T03:16:29;4.85;;;2.60;;
68178;SDS011;69812;42.632;23.440;2024-03-08T03:18:54;5.15;;;2.00;;
68178;SDS011;69812;42.632;23.440;2024-03-08T03:21:24;5.53;;;2.47;;
68178;SDS011;69812;42.632;23.440;2024-03-08T03:23:56;4.18;;;2.00;;
68178;SDS011;69812;42.632;23.440;2024-03-08T03:26:24;7.22;;;2.25;;
68178;SDS011;69812;42.632;23.440;2024-03-08T03:29:08;5.38;;;2.30;;
68178;SDS011;69812;42.632;23.440;2024-03-08T03:31:34;5.72;;;3.40;;
68178;SDS011;69812;42.632;23.440;2024-03-08T03:34:01;5.15;;;2.75;;
68178;SDS011;69812;42.632;23.440;2024-03-08T03:36:29;32.80;;;13.05;;
68178;SDS011;69812;42.632;23.440;2024-03-08T03:38:55;7.95;;;3.30;;
68178;SDS011;69812;42.632;23.440;2024-03-08T03:41:38;42.35;;;16.23;;
68178;SDS011;69812;42.632;23.440;2024-03-08T03:46:44;14.82;;;6.53;;
68178;SDS011;69812;42.632;23.440;2024-03-08T03:49:17;18.40;;;6.50;;
68178;SDS011;69812;42.632;23.440;2024-03-08T03:51:45;17.30;;;6.65;;
68178;SDS011;69812;42.632;23.440;2024-03-08T03:54:11;16.40;;;6.38;;
68178;SDS011;69812;42.632;23.440;2024-03-08T03:56:37;16.23;;;7.15;;
68178;SDS011;69812;42.632;23.440;2024-03-08T03:59:03;12.20;;;6.00;;
68178;SDS011;69812;42.632;23.440;2024-03-08T04:01:33;9.35;;;4.57;;
68178;SDS011;69812;42.632;23.440;2024-03-08T04:03:59;14.60;;;6.82;;
68178;SDS011;69812;42.632;23.440;2024-03-08T04:06:27;12.02;;;6.32;;
68178;SDS011;69812;42.632;23.440;2024-03-08T04:08:54;27.05;;;11.13;;
68178;SDS011;69812;42.632;23.440;2024-03-08T04:11:20;15.90;;;8.32;;
68178;SDS011;69812;42.632;23.440;2024-03-08T04:13:48;10.73;;;5.80;;
68178;SDS011;69812;42.632;23.440;2024-03-08T04:16:13;11.18;;;6.05;;
68178;SDS011;69812;42.632;23.440;2024-03-08T04:18:39;6.82;;;3.42;;
68178;SDS011;69812;42.632;23.440;2024-03-08T04:21:07;7.70;;;3.83;;
68178;SDS011;69812;42.632;23.440;2024-03-08T04:23:48;5.60;;;3.00;;
68178;SDS011;69812;42.632;23.440;2024-03-08T04:26:21;12.13;;;5.30;;
68178;SDS011;69812;42.632;23.440;2024-03-08T04:28:47;6.75;;;3.25;;
68178;SDS011;69812;42.632;23.440;2024-03-08T04:31:14;4.57;;;2.88;;
68178;SDS011;69812;42.632;23.440;2024-03-08T04:33:40;3.75;;;1.90;;
68178;SDS011;69812;42.632;23.440;2024-03-08T04:36:06;5.35;;;3.45;;
68178;SDS011;69812;42.632;23.440;2024-03-08T04:38:32;4.75;;;2.60;;
68178;SDS011;69812;42.632;23.440;2024-03-08T04:40:58;5.05;;;2.83;;
68178;SDS011;69812;42.632;23.440;2024-03-08T04:43:24;6.78;;;3.08;;
68178;SDS011;69812;42.632;23.440;2024-03-08T04:45:51;4.35;;;2.22;;
68178;SDS011;69812;42.632;23.440;2024-03-08T04:48:17;4.85;;;2.22;;
68178;SDS011;69812;42.632;23.440;2024-03-08T04:50:42;7.28;;;2.42;;
68178;SDS011;69812;42.632;23.440;2024-03-08T04:56:31;6.80;;;2.92;;
68178;SDS011;69812;42.632;23.440;2024-03-08T04:58:59;7.32;;;3.65;;
68178;SDS011;69812;42.632;23.440;2024-03-08T05:01:24;11.52;;;6.10;;
68178;SDS011;69812;42.632;23.440;2024-03-08T05:03:49;8.02;;;3.75;;
68178;SDS011;69812;42.632;23.440;2024-03-08T05:06:16;8.55;;;3.72;;
68178;SDS011;69812;42.632;23.440;2024-03-08T05:08:42;7.00;;;3.72;;
68178;SDS011;69812;42.632;23.440;2024-03-08T05:11:07;8.23;;;3.72;;
68178;SDS011;69812;42.632;23.440;2024-03-08T05:13:33;8.57;;;4.18;;
68178;SDS011;69812;42.632;23.440;2024-03-08T05:15:59;8.57;;;4.05;;
68178;SDS011;69812;42.632;23.440;2024-03-08T05:18:25;8.40;;;2.90;;
68178;SDS011;69812;42.632;23.440;2024-03-08T05:20:51;8.43;;;4.47;;
68178;SDS011;69812;42.632;23.440;2024-03-08T05:23:17;13.25;;;5.88;;
68178;SDS011;69812;42.632;23.440;2024-03-08T05:25:44;11.65;;;4.53;;
68178;SDS011;69812;42.632;23.440;2024-03-08T05:28:12;8.73;;;3.90;;
68178;SDS011;69812;42.632;23.440;2024-03-08T05:30:38;8.57;;;3.92;;
68178;SDS011;69812;42.632;23.440;2024-03-08T05:33:03;8.50;;;3.97;;
68178;SDS011;69812;42.632;23.440;2024-03-08T05:35:31;8.10;;;3.92;;
68178;SDS011;69812;42.632;23.440;2024-03-08T05:37:59;12.60;;;4.38;;
68178;SDS011;69812;42.632;23.440;2024-03-08T05:40:24;12.57;;;4.70;;
68178;SDS011;69812;42.632;23.440;2024-03-08T05:42:50;8.35;;;4.10;;
68178;SDS011;69812;42.632;23.440;2024-03-08T05:45:17;8.32;;;3.55;;
68178;SDS011;69812;42.632;23.440;2024-03-08T05:47:43;9.27;;;4.70;;
68178;SDS011;69812;42.632;23.440;2024-03-08T05:50:09;9.63;;;4.80;;
68178;SDS011;69812;42.632;23.440;2024-03-08T05:52:36;7.53;;;3.53;;
68178;SDS011;69812;42.632;23.440;2024-03-08T05:57:32;8.93;;;4.43;;
68178;SDS011;69812;42.632;23.440;2024-03-08T05:59:57;9.50;;;4.60;;
68178;SDS011;69812;42.632;23.440;2024-03-08T06:02:23;9.32;;;4.53;;
68178;SDS011;69812;42.632;23.440;2024-03-08T06:04:48;8.38;;;3.97;;
68178;SDS011;69812;42.632;23.440;2024-03-08T06:07:14;8.75;;;4.30;;
68178;SDS011;69812;42.632;23.440;2024-03-08T06:09:42;7.20;;;3.67;;
68178;SDS011;69812;42.632;23.440;2024-03-08T06:12:13;8.45;;;4.25;;
68178;SDS011;69812;42.632;23.440;2024-03-08T06:14:43;8.30;;;4.38;;
68178;SDS011;69812;42.632;23.440;2024-03-08T06:17:12;11.40;;;5.80;;
68178;SDS011;69812;42.632;23.440;2024-03-08T06:19:37;8.10;;;3.60;;
68178;SDS011;69812;42.632;23.440;2024-03-08T06:22:02;9.27;;;4.53;;
68178;SDS011;69812;42.632;23.440;2024-03-08T06:24:31;8.57;;;4.65;;
68178;SDS011;69812;42.632;23.440;2024-03-08T06:27:01;9.00;;;4.75;;
68178;SDS011;69812;42.632;23.440;2024-03-08T06:29:29;6.78;;;3.78;;
68178;SDS011;69812;42.632;23.440;2024-03-08T06:31:54;12.98;;;5.53;;
68178;SDS011;69812;42.632;23.440;2024-03-08T06:34:20;6.95;;;3.67;;
68178;SDS011;69812;42.632;23.440;2024-03-08T06:36:46;9.23;;;4.70;;
68178;SDS011;69812;42.632;23.440;2024-03-08T06:39:11;8.70;;;4.57;;
68178;SDS011;69812;42.632;23.440;2024-03-08T06:41:36;9.30;;;4.43;;
68178;SDS011;69812;42.632;23.440;2024-03-08T06:44:02;7.15;;;3.63;;
68178;SDS011;69812;42.632;23.440;2024-03-08T06:46:28;9.25;;;4.50;;
68178;SDS011;69812;42.632;23.440;2024-03-08T06:48:53;7.68;;;3.85;;
68178;SDS011;69812;42.632;23.440;2024-03-08T06:51:22;8.93;;;4.20;;
68178;SDS011;69812;42.632;23.440;2024-03-08T06:53:47;7.47;;;3.95;;
68178;SDS011;69812;42.632;23.440;2024-03-08T06:56:16;7.70;;;3.67;;
68178;SDS011;69812;42.632;23.440;2024-03-08T06:58:45;5.43;;;3.30;;
68178;SDS011;69812;42.632;23.440;2024-03-08T07:01:14;7.05;;;3.72;;
68178;SDS011;69812;42.632;23.440;2024-03-08T07:03:42;6.00;;;3.53;;
68178;SDS011;69812;42.632;23.440;2024-03-08T07:06:17;7.38;;;3.90;;
68178;SDS011;69812;42.632;23.440;2024-03-08T07:08:48;7.10;;;3.20;;
68178;SDS011;69812;42.632;23.440;2024-03-08T07:11:13;6.10;;;2.83;;
68178;SDS011;69812;42.632;23.440;2024-03-08T07:13:45;6.88;;;3.60;;
68178;SDS011;69812;42.632;23.440;2024-03-08T07:16:10;6.13;;;3.28;;
68178;SDS011;69812;42.632;23.440;2024-03-08T07:18:37;6.57;;;3.33;;
68178;SDS011;69812;42.632;23.440;2024-03-08T07:21:05;5.53;;;3.10;;
68178;SDS011;69812;42.632;23.440;2024-03-08T07:23:38;5.90;;;3.20;;
68178;SDS011;69812;42.632;23.440;2024-03-08T07:26:19;4.53;;;2.90;;
68178;SDS011;69812;42.632;23.440;2024-03-08T07:28:47;6.03;;;3.13;;
68178;SDS011;69812;42.632;23.440;2024-03-08T07:31:19;5.65;;;3.03;;
68178;SDS011;69812;42.632;23.440;2024-03-08T07:33:52;5.82;;;2.90;;
68178;SDS011;69812;42.632;23.440;2024-03-08T07:36:20;5.78;;;3.08;;
68178;SDS011;69812;42.632;23.440;2024-03-08T07:38:49;7.25;;;3.63;;
68178;SDS011;69812;42.632;23.440;2024-03-08T07:41:15;6.68;;;3.50;;
68178;SDS011;69812;42.632;23.440;2024-03-08T07:43:41;6.05;;;3.33;;
68178;SDS011;69812;42.632;23.440;2024-03-08T07:46:06;5.95;;;3.38;;
68178;SDS011;69812;42.632;23.440;2024-03-08T07:48:35;6.65;;;3.70;;
68178;SDS011;69812;42.632;23.440;2024-03-08T07:51:06;6.03;;;3.20;;
68178;SDS011;69812;42.632;23.440;2024-03-08T07:53:36;7.15;;;3.65;;
68178;SDS011;69812;42.632;23.440;2024-03-08T14:20:27;2.00;;;1.30;;
68178;SDS011;69812;42.632;23.440;2024-03-08T15:16:22;2.83;;;1.73;;
68178;SDS011;69812;42.632;23.440;2024-03-08T15:18:49;3.35;;;2.15;;
68178;SDS011;69812;42.632;23.440;2024-03-08T15:21:16;4.40;;;1.95;;
68178;SDS011;69812;42.632;23.440;2024-03-08T15:23:45;6.07;;;1.88;;
68178;SDS011;69812;42.632;23.440;2024-03-08T15:26:16;2.40;;;0.88;;
68178;SDS011;69812;42.632;23.440;2024-03-08T15:28:43;2.42;;;1.42;;
68178;SDS011;69812;42.632;23.440;2024-03-08T15:31:16;2.85;;;1.80;;
68178;SDS011;69812;42.632;23.440;2024-03-08T15:33:44;3.58;;;1.90;;
68178;SDS011;69812;42.632;23.440;2024-03-08T15:36:14;2.47;;;1.05;;
68178;SDS011;69812;42.632;23.440;2024-03-08T15:38:42;3.88;;;1.90;;
68178;SDS011;69812;42.632;23.440;2024-03-08T15:41:15;3.65;;;2.13;;
68178;SDS011;69812;42.632;23.440;2024-03-08T15:43:43;3.03;;;1.92;;
68178;SDS011;69812;42.632;23.440;2024-03-08T15:46:11;3.55;;;1.67;;
68178;SDS011;69812;42.632;23.440;2024-03-08T15:48:38;5.85;;;2.45;;
68178;SDS011;69812;42.632;23.440;2024-03-08T15:51:07;7.00;;;3.08;;
68178;SDS011;69812;42.632;23.440;2024-03-08T15:53:36;6.30;;;2.55;;
68178;SDS011;69812;42.632;23.440;2024-03-08T15:56:02;4.20;;;2.20;;
68178;SDS011;69812;42.632;23.440;2024-03-08T15:58:31;4.72;;;2.33;;
68178;SDS011;69812;42.632;23.440;2024-03-08T16:00:57;7.30;;;4.13;;
68178;SDS011;69812;42.632;23.440;2024-03-08T16:03:28;4.22;;;1.98;;
68178;SDS011;69812;42.632;23.440;2024-03-08T16:05:55;3.80;;;1.63;;
68178;SDS011;69812;42.632;23.440;2024-03-08T16:08:21;5.35;;;2.10;;
68178;SDS011;69812;42.632;23.440;2024-03-08T16:10:48;4.85;;;3.05;;
68178;SDS011;69812;42.632;23.440;2024-03-08T16:13:20;7.85;;;4.97;;
68178;SDS011;69812;42.632;23.440;2024-03-08T16:15:48;4.50;;;2.20;;
68178;SDS011;69812;42.632;23.440;2024-03-08T16:20:41;4.93;;;2.35;;
68178;SDS011;69812;42.632;23.440;2024-03-08T16:23:13;5.30;;;2.63;;
68178;SDS011;69812;42.632;23.440;2024-03-08T16:25:44;4.10;;;2.40;;
68178;SDS011;69812;42.632;23.440;2024-03-08T16:28:10;6.00;;;2.83;;
68178;SDS011;69812;42.632;23.440;2024-03-08T16:30:37;5.55;;;2.70;;
68178;SDS011;69812;42.632;23.440;2024-03-08T16:33:03;5.63;;;2.83;;
68178;SDS011;69812;42.632;23.440;2024-03-08T16:35:30;6.78;;;3.42;;
68178;SDS011;69812;42.632;23.440;2024-03-08T16:37:56;8.00;;;3.20;;
68178;SDS011;69812;42.632;23.440;2024-03-08T16:40:21;6.50;;;3.15;;
68178;SDS011;69812;42.632;23.440;2024-03-08T16:42:47;8.25;;;3.53;;
68178;SDS011;69812;42.632;23.440;2024-03-08T16:45:21;5.78;;;3.13;;
68178;SDS011;69812;42.632;23.440;2024-03-08T16:47:48;6.45;;;3.42;;
68178;SDS011;69812;42.632;23.440;2024-03-08T16:50:16;7.78;;;4.05;;
68178;SDS011;69812;42.632;23.440;2024-03-08T16:52:42;6.55;;;3.40;;
68178;SDS011;69812;42.632;23.440;2024-03-08T16:55:08;5.50;;;3.10;;
68178;SDS011;69812;42.632;23.440;2024-03-08T16:57:41;10.38;;;4.55;;
68178;SDS011;69812;42.632;23.440;2024-03-08T17:00:21;9.25;;;4.32;;
68178;SDS011;69812;42.632;23.440;2024-03-08T17:02:54;8.75;;;4.20;;
68178;SDS011;69812;42.632;23.440;2024-03-08T17:05:23;11.88;;;5.28;;
68178;SDS011;69812;42.632;23.440;2024-03-08T17:07:53;8.75;;;3.90;;
68178;SDS011;69812;42.632;23.440;2024-03-08T17:10:24;9.52;;;4.18;;
68178;SDS011;69812;42.632;23.440;2024-03-08T17:12:52;12.95;;;5.85;;
68178;SDS011;69812;42.632;23.440;2024-03-08T17:15:22;15.27;;;6.32;;
68178;SDS011;69812;42.632;23.440;2024-03-08T17:17:53;7.32;;;4.20;;
68178;SDS011;69812;42.632;23.440;2024-03-08T17:20:21;6.90;;;3.40;;
68178;SDS011;69812;42.632;23.440;2024-03-08T17:22:50;7.70;;;4.00;;
68178;SDS011;69812;42.632;23.440;2024-03-08T17:25:18;8.48;;;4.35;;
68178;SDS011;69812;42.632;23.440;2024-03-08T17:27:50;9.80;;;4.32;;
68178;SDS011;69812;42.632;23.440;2024-03-08T17:30:24;11.90;;;4.93;;
68178;SDS011;69812;42.632;23.440;2024-03-08T17:32:53;8.82;;;4.18;;
68178;SDS011;69812;42.632;23.440;2024-03-08T17:35:28;6.43;;;3.42;;
68178;SDS011;69812;42.632;23.440;2024-03-08T17:37:57;9.75;;;4.18;;
68178;SDS011;69812;42.632;23.440;2024-03-08T17:40:26;9.63;;;4.13;;
68178;SDS011;69812;42.632;23.440;2024-03-08T17:42:58;10.63;;;5.55;;
68178;SDS011;69812;42.632;23.440;2024-03-08T17:45:32;15.05;;;6.35;;
68178;SDS011;69812;42.632;23.440;2024-03-08T17:48:00;7.95;;;3.83;;
68178;SDS011;69812;42.632;23.440;2024-03-08T17:50:26;8.35;;;4.05;;
68178;SDS011;69812;42.632;23.440;2024-03-08T17:52:52;7.97;;;3.53;;
68178;SDS011;69812;42.632;23.440;2024-03-08T17:55:23;7.93;;;4.13;;
68178;SDS011;69812;42.632;23.440;2024-03-08T17:57:49;8.43;;;4.10;;
68178;SDS011;69812;42.632;23.440;2024-03-08T18:00:20;8.20;;;4.00;;
68178;SDS011;69812;42.632;23.440;2024-03-08T18:03:03;7.20;;;4.07;;
68178;SDS011;69812;42.632;23.440;2024-03-08T18:05:39;8.35;;;4.50;;
68178;SDS011;69812;42.632;23.440;2024-03-08T18:08:06;9.35;;;4.45;;
68178;SDS011;69812;42.632;23.440;2024-03-08T18:10:32;10.80;;;4.70;;
68178;SDS011;69812;42.632;23.440;2024-03-08T18:12:59;10.18;;;4.68;;
68178;SDS011;69812;42.632;23.440;2024-03-08T18:15:38;7.78;;;4.25;;
68178;SDS011;69812;42.632;23.440;2024-03-08T18:18:04;10.35;;;5.30;;
68178;SDS011;69812;42.632;23.440;2024-03-08T18:20:36;12.50;;;5.10;;
68178;SDS011;69812;42.632;23.440;2024-03-08T18:23:14;12.50;;;5.82;;
68178;SDS011;69812;42.632;23.440;2024-03-08T18:25:41;10.82;;;4.20;;
68178;SDS011;69812;42.632;23.440;2024-03-08T18:28:08;7.88;;;4.28;;
68178;SDS011;69812;42.632;23.440;2024-03-08T18:30:35;8.35;;;4.60;;
68178;SDS011;69812;42.632;23.440;2024-03-08T18:33:07;7.57;;;4.68;;
68178;SDS011;69812;42.632;23.440;2024-03-08T18:35:33;7.93;;;4.35;;
68178;SDS011;69812;42.632;23.440;2024-03-08T18:37:59;5.05;;;2.85;;
68178;SDS011;69812;42.632;23.440;2024-03-08T18:40:25;10.07;;;5.25;;
68178;SDS011;69812;42.632;23.440;2024-03-08T18:42:52;7.97;;;4.10;;
68178;SDS011;69812;42.632;23.440;2024-03-08T18:45:21;6.80;;;3.00;;
68178;SDS011;69812;42.632;23.440;2024-03-08T18:47:49;9.02;;;4.57;;
68178;SDS011;69812;42.632;23.440;2024-03-08T18:50:24;10.40;;;4.22;;
68178;SDS011;69812;42.632;23.440;2024-03-08T18:52:53;10.25;;;5.05;;
68178;SDS011;69812;42.632;23.440;2024-03-08T18:55:25;10.93;;;5.07;;
68178;SDS011;69812;42.632;23.440;2024-03-08T18:57:54;21.38;;;7.15;;
68178;SDS011;69812;42.632;23.440;2024-03-08T19:00:22;18.00;;;6.72;;
68178;SDS011;69812;42.632;23.440;2024-03-08T19:02:54;24.08;;;7.65;;
68178;SDS011;69812;42.632;23.440;2024-03-08T19:05:24;22.95;;;8.07;;
68178;SDS011;69812;42.632;23.440;2024-03-08T19:07:51;25.45;;;8.38;;
68178;SDS011;69812;42.632;23.440;2024-03-08T19:10:19;12.63;;;7.10;;
68178;SDS011;69812;42.632;23.440;2024-03-08T19:12:48;21.90;;;7.45;;
68178;SDS011;69812;42.632;23.440;2024-03-08T19:15:16;19.45;;;7.53;;
68178;SDS011;69812;42.632;23.440;2024-03-08T19:17:46;15.68;;;7.28;;
68178;SDS011;69812;42.632;23.440;2024-03-08T19:20:15;12.40;;;5.05;;
68178;SDS011;69812;42.632;23.440;2024-03-08T19:22:43;19.85;;;7.18;;
68178;SDS011;69812;42.632;23.440;2024-03-08T19:25:09;41.28;;;11.32;;
68178;SDS011;69812;42.632;23.440;2024-03-08T19:27:38;17.63;;;7.28;;
68178;SDS011;69812;42.632;23.440;2024-03-08T19:30:13;15.30;;;7.90;;
68178;SDS011;69812;42.632;23.440;2024-03-08T19:32:42;12.57;;;6.63;;
68178;SDS011;69812;42.632;23.440;2024-03-08T19:35:10;34.65;;;10.18;;
68178;SDS011;69812;42.632;23.440;2024-03-08T19:37:41;24.65;;;8.40;;
68178;SDS011;69812;42.632;23.440;2024-03-08T19:40:13;57.53;;;17.40;;
68178;SDS011;69812;42.632;23.440;2024-03-08T19:42:46;20.10;;;9.25;;
68178;SDS011;69812;42.632;23.440;2024-03-08T19:45:14;34.92;;;14.10;;
68178;SDS011;69812;42.632;23.440;2024-03-08T19:47:43;16.73;;;7.38;;
68178;SDS011;69812;42.632;23.440;2024-03-08T19:50:10;10.93;;;6.13;;
68178;SDS011;69812;42.632;23.440;2024-03-08T19:52:40;8.98;;;5.40;;
68178;SDS011;69812;42.632;23.440;2024-03-08T19:55:10;12.98;;;6.15;;
68178;SDS011;69812;42.632;23.440;2024-03-08T19:57:44;10.13;;;4.95;;
68178;SDS011;69812;42.632;23.440;2024-03-08T20:00:11;12.10;;;5.28;;
68178;SDS011;69812;42.632;23.440;2024-03-08T20:02:41;9.65;;;4.43;;
68178;SDS011;69812;42.632;23.440;2024-03-08T20:05:08;9.38;;;4.82;;
68178;SDS011;69812;42.632;23.440;2024-03-08T20:07:40;9.40;;;4.40;;
68178;SDS011;69812;42.632;23.440;2024-03-08T20:10:09;8.68;;;4.13;;
68178;SDS011;69812;42.632;23.440;2024-03-08T20:12:37;9.00;;;4.13;;
68178;SDS011;69812;42.632;23.440;2024-03-08T20:15:03;11.18;;;4.45;;
68178;SDS011;69812;42.632;23.440;2024-03-08T20:17:32;8.07;;;4.30;;
68178;SDS011;69812;42.632;23.440;2024-03-08T20:19:59;10.88;;;5.10;;
68178;SDS011;69812;42.632;23.440;2024-03-08T20:22:25;9.70;;;4.13;;
68178;SDS011;69812;42.632;23.440;2024-03-08T20:24:51;11.75;;;5.07;;
68178;SDS011;69812;42.632;23.440;2024-03-08T20:27:18;12.77;;;5.00;;
68178;SDS011;69812;42.632;23.440;2024-03-08T20:29:44;9.57;;;4.45;;
68178;SDS011;69812;42.632;23.440;2024-03-08T20:32:11;11.05;;;4.82;;
68178;SDS011;69812;42.632;23.440;2024-03-08T20:34:37;10.27;;;4.57;;
68178;SDS011;69812;42.632;23.440;2024-03-08T20:37:03;9.32;;;4.20;;
68178;SDS011;69812;42.632;23.440;2024-03-08T20:39:31;8.57;;;4.15;;
68178;SDS011;69812;42.632;23.440;2024-03-08T20:42:00;11.00;;;5.03;;
68178;SDS011;69812;42.632;23.440;2024-03-08T20:44:25;10.18;;;5.40;;
68178;SDS011;69812;42.632;23.440;2024-03-08T20:46:51;11.75;;;5.05;;
68178;SDS011;69812;42.632;23.440;2024-03-08T20:49:16;9.88;;;4.65;;
68178;SDS011;69812;42.632;23.440;2024-03-08T20:51:44;10.23;;;4.82;;
68178;SDS011;69812;42.632;23.440;2024-03-08T20:54:10;10.82;;;4.95;;
68178;SDS011;69812;42.632;23.440;2024-03-08T20:56:35;12.77;;;5.78;;
68178;SDS011;69812;42.632;23.440;2024-03-08T20:59:03;12.13;;;5.30;;
68178;SDS011;69812;42.632;23.440;2024-03-08T21:01:31;14.15;;;6.30;;
68178;SDS011;69812;42.632;23.440;2024-03-08T21:04:00;15.93;;;7.30;;
68178;SDS011;69812;42.632;23.440;2024-03-08T21:06:26;15.70;;;7.47;;
68178;SDS011;69812;42.632;23.440;2024-03-08T21:08:51;17.05;;;7.97;;
68178;SDS011;69812;42.632;23.440;2024-03-08T21:11:16;11.88;;;5.65;;
68178;SDS011;69812;42.632;23.440;2024-03-08T21:13:42;13.18;;;5.97;;
68178;SDS011;69812;42.632;23.440;2024-03-08T21:16:07;14.05;;;5.90;;
68178;SDS011;69812;42.632;23.440;2024-03-08T21:18:34;12.77;;;5.25;;
68178;SDS011;69812;42.632;23.440;2024-03-08T21:21:01;11.07;;;5.50;;
68178;SDS011;69812;42.632;23.440;2024-03-08T21:23:29;11.52;;;5.22;;
68178;SDS011;69812;42.632;23.440;2024-03-08T21:25:58;16.45;;;6.95;;
68178;SDS011;69812;42.632;23.440;2024-03-08T21:28:26;17.98;;;6.82;;
68178;SDS011;69812;42.632;23.440;2024-03-08T21:30:55;23.95;;;10.05;;
68178;SDS011;69812;42.632;23.440;2024-03-08T21:33:21;20.15;;;8.18;;
68178;SDS011;69812;42.632;23.440;2024-03-08T21:35:47;13.77;;;6.88;;
68178;SDS011;69812;42.632;23.440;2024-03-08T21:38:15;14.07;;;6.15;;
68178;SDS011;69812;42.632;23.440;2024-03-08T21:40:43;12.93;;;6.47;;
68178;SDS011;69812;42.632;23.440;2024-03-08T21:43:08;11.52;;;5.75;;
68178;SDS011;69812;42.632;23.440;2024-03-08T21:45:35;11.77;;;6.22;;
68178;SDS011;69812;42.632;23.440;2024-03-08T21:48:03;13.98;;;6.38;;
68178;SDS011;69812;42.632;23.440;2024-03-08T21:50:29;18.48;;;7.88;;
68178;SDS011;69812;42.632;23.440;2024-03-08T21:53:06;17.02;;;7.75;;
68178;SDS011;69812;42.632;23.440;2024-03-08T21:55:32;18.50;;;8.85;;
68178;SDS011;69812;42.632;23.440;2024-03-08T21:57:58;16.60;;;7.68;;
68178;SDS011;69812;42.632;23.440;2024-03-08T22:00:23;20.20;;;9.10;;
68178;SDS011;69812;42.632;23.440;2024-03-08T22:02:49;20.42;;;8.95;;